sensor_id;sensor_type;location;lat;lon;timestamp;temperature;humidity
4509;DHT22;2267;48.816;9.230;2022-07-30T00:01:31;22.70;99.50
4509;DHT22;2267;48.816;9.230;2022-07-30T00:04:02;22.70;99.40
4509;DHT22;2267;48.816;9.230;2022-07-30T00:06:29;22.60;99.40
4509;DHT22;2267;48.816;9.230;2022-07-30T00:08:56;22.60;99.40
4509;DHT22;2267;48.816;9.230;2022-07-30T00:11:23;22.60;99.40
4509;DHT22;2267;48.816;9.230;2022-07-30T00:13:53;22.50;99.30
4509;DHT22;2267;48.816;9.230;2022-07-30T00:16:20;22.50;99.50
4509;DHT22;2267;48.816;9.230;2022-07-30T00:18:47;22.50;99.50
4509;DHT22;2267;48.816;9.230;2022-07-30T00:21:14;22.40;99.40
4509;DHT22;2267;48.816;9.230;2022-07-30T00:24:01;22.40;99.40
4509;DHT22;2267;48.816;9.230;2022-07-30T00:26:28;22.40;99.20
4509;DHT22;2267;48.816;9.230;2022-07-30T00:28:54;22.40;99.10
4509;DHT22;2267;48.816;9.230;2022-07-30T00:31:21;22.40;99.00
4509;DHT22;2267;48.816;9.230;2022-07-30T00:33:48;22.30;99.00
4509;DHT22;2267;48.816;9.230;2022-07-30T00:36:15;22.30;99.10
4509;DHT22;2267;48.816;9.230;2022-07-30T00:38:42;22.30;99.10
4509;DHT22;2267;48.816;9.230;2022-07-30T00:41:08;22.30;98.90
4509;DHT22;2267;48.816;9.230;2022-07-30T00:43:35;22.30;99.50
4509;DHT22;2267;48.816;9.230;2022-07-30T00:46:02;22.30;99.00
4509;DHT22;2267;48.816;9.230;2022-07-30T00:48:29;22.40;99.00
4509;DHT22;2267;48.816;9.230;2022-07-30T00:50:55;22.30;98.40
4509;DHT22;2267;48.816;9.230;2022-07-30T00:53:23;22.30;98.20
4509;DHT22;2267;48.816;9.230;2022-07-30T00:55:50;22.30;98.40
4509;DHT22;2267;48.816;9.230;2022-07-30T00:58:17;22.30;98.10
4509;DHT22;2267;48.816;9.230;2022-07-30T01:00:44;22.30;97.80
4509;DHT22;2267;48.816;9.230;2022-07-30T01:03:11;22.30;97.70
4509;DHT22;2267;48.816;9.230;2022-07-30T01:05:37;22.30;97.40
4509;DHT22;2267;48.816;9.230;2022-07-30T01:08:04;22.30;97.40
4509;DHT22;2267;48.816;9.230;2022-07-30T01:10:31;22.20;96.90
4509;DHT22;2267;48.816;9.230;2022-07-30T01:12:58;22.30;97.10
4509;DHT22;2267;48.816;9.230;2022-07-30T01:15:27;22.20;97.20
4509;DHT22;2267;48.816;9.230;2022-07-30T01:17:56;22.30;96.80
4509;DHT22;2267;48.816;9.230;2022-07-30T01:20:31;22.20;96.20
4509;DHT22;2267;48.816;9.230;2022-07-30T01:28:10;22.10;96.00
4509;DHT22;2267;48.816;9.230;2022-07-30T01:30:40;22.10;95.90
4509;DHT22;2267;48.816;9.230;2022-07-30T01:33:13;22.10;95.70
4509;DHT22;2267;48.816;9.230;2022-07-30T01:35:42;22.10;95.50
4509;DHT22;2267;48.816;9.230;2022-07-30T01:38:11;22.10;95.80
4509;DHT22;2267;48.816;9.230;2022-07-30T01:40:38;22.10;95.90
4509;DHT22;2267;48.816;9.230;2022-07-30T01:43:07;22.10;96.00
4509;DHT22;2267;48.816;9.230;2022-07-30T01:45:35;22.10;96.10
4509;DHT22;2267;48.816;9.230;2022-07-30T01:48:11;22.10;96.30
4509;DHT22;2267;48.816;9.230;2022-07-30T01:50:43;22.10;96.30
4509;DHT22;2267;48.816;9.230;2022-07-30T01:53:14;22.10;96.60
4509;DHT22;2267;48.816;9.230;2022-07-30T01:55:43;22.00;96.40
4509;DHT22;2267;48.816;9.230;2022-07-30T01:58:11;22.00;96.40
4509;DHT22;2267;48.816;9.230;2022-07-30T02:00:41;22.00;96.10
4509;DHT22;2267;48.816;9.230;2022-07-30T02:03:09;22.00;96.00
4509;DHT22;2267;48.816;9.230;2022-07-30T02:05:37;21.90;96.10
4509;DHT22;2267;48.816;9.230;2022-07-30T02:08:57;21.90;96.30
4509;DHT22;2267;48.816;9.230;2022-07-30T02:11:08;21.90;96.10
4509;DHT22;2267;48.816;9.230;2022-07-30T02:13:46;21.90;96.20
4509;DHT22;2267;48.816;9.230;2022-07-30T02:18:56;21.80;96.20
4509;DHT22;2267;48.816;9.230;2022-07-30T02:21:25;21.80;96.40
4509;DHT22;2267;48.816;9.230;2022-07-30T02:24:06;21.80;96.40
4509;DHT22;2267;48.816;9.230;2022-07-30T02:26:35;21.80;96.30
4509;DHT22;2267;48.816;9.230;2022-07-30T02:29:04;21.80;96.20
4509;DHT22;2267;48.816;9.230;2022-07-30T02:31:38;21.70;96.10
4509;DHT22;2267;48.816;9.230;2022-07-30T02:34:07;21.70;96.20
4509;DHT22;2267;48.816;9.230;2022-07-30T02:36:34;21.70;96.10
4509;DHT22;2267;48.816;9.230;2022-07-30T02:39:03;21.60;96.40
4509;DHT22;2267;48.816;9.230;2022-07-30T02:41:30;21.60;96.30
4509;DHT22;2267;48.816;9.230;2022-07-30T02:43:59;21.60;96.30
4509;DHT22;2267;48.816;9.230;2022-07-30T02:46:26;21.50;96.30
4509;DHT22;2267;48.816;9.230;2022-07-30T02:48:55;21.50;96.50
4509;DHT22;2267;48.816;9.230;2022-07-30T02:51:24;21.40;96.30
4509;DHT22;2267;48.816;9.230;2022-07-30T02:53:53;21.40;96.30
4509;DHT22;2267;48.816;9.230;2022-07-30T02:56:21;21.40;96.40
4509;DHT22;2267;48.816;9.230;2022-07-30T02:58:49;21.40;96.50
4509;DHT22;2267;48.816;9.230;2022-07-30T03:01:18;21.50;97.00
4509;DHT22;2267;48.816;9.230;2022-07-30T03:03:47;21.50;96.70
4509;DHT22;2267;48.816;9.230;2022-07-30T03:06:17;21.50;96.80
4509;DHT22;2267;48.816;9.230;2022-07-30T03:08:44;21.50;96.90
4509;DHT22;2267;48.816;9.230;2022-07-30T03:11:12;21.50;96.90
4509;DHT22;2267;48.816;9.230;2022-07-30T03:13:39;21.40;96.80
4509;DHT22;2267;48.816;9.230;2022-07-30T03:16:09;21.40;96.90
4509;DHT22;2267;48.816;9.230;2022-07-30T03:18:37;21.40;97.00
4509;DHT22;2267;48.816;9.230;2022-07-30T03:21:07;21.40;97.10
4509;DHT22;2267;48.816;9.230;2022-07-30T03:23:36;21.30;97.00
4509;DHT22;2267;48.816;9.230;2022-07-30T03:26:05;21.30;97.10
4509;DHT22;2267;48.816;9.230;2022-07-30T03:28:39;21.30;97.20
4509;DHT22;2267;48.816;9.230;2022-07-30T03:31:06;21.20;97.10
4509;DHT22;2267;48.816;9.230;2022-07-30T03:33:35;21.20;97.40
4509;DHT22;2267;48.816;9.230;2022-07-30T03:36:06;21.20;97.30
4509;DHT22;2267;48.816;9.230;2022-07-30T03:38:36;21.10;97.30
4509;DHT22;2267;48.816;9.230;2022-07-30T03:41:04;21.00;97.40
4509;DHT22;2267;48.816;9.230;2022-07-30T03:43:31;21.00;97.40
4509;DHT22;2267;48.816;9.230;2022-07-30T03:46:02;21.00;97.40
4509;DHT22;2267;48.816;9.230;2022-07-30T03:48:32;21.00;97.50
4509;DHT22;2267;48.816;9.230;2022-07-30T03:51:02;21.00;97.40
4509;DHT22;2267;48.816;9.230;2022-07-30T03:53:30;21.00;97.30
4509;DHT22;2267;48.816;9.230;2022-07-30T03:55:57;21.00;97.40
4509;DHT22;2267;48.816;9.230;2022-07-30T03:58:24;21.00;97.30
4509;DHT22;2267;48.816;9.230;2022-07-30T04:00:51;21.00;97.30
4509;DHT22;2267;48.816;9.230;2022-07-30T04:03:30;21.00;97.30
4509;DHT22;2267;48.816;9.230;2022-07-30T04:05:58;21.00;97.30
4509;DHT22;2267;48.816;9.230;2022-07-30T04:08:26;20.90;97.20
4509;DHT22;2267;48.816;9.230;2022-07-30T04:10:54;20.90;97.50
4509;DHT22;2267;48.816;9.230;2022-07-30T04:13:20;20.90;97.20
4509;DHT22;2267;48.816;9.230;2022-07-30T04:15:57;20.90;96.80
4509;DHT22;2267;48.816;9.230;2022-07-30T04:18:54;21.00;96.50
4509;DHT22;2267;48.816;9.230;2022-07-30T04:21:23;21.00;96.30
4509;DHT22;2267;48.816;9.230;2022-07-30T04:23:51;21.00;96.50
4509;DHT22;2267;48.816;9.230;2022-07-30T04:26:32;20.90;96.60
4509;DHT22;2267;48.816;9.230;2022-07-30T04:29:00;20.90;96.60
4509;DHT22;2267;48.816;9.230;2022-07-30T04:31:28;20.80;96.60
4509;DHT22;2267;48.816;9.230;2022-07-30T04:33:55;20.80;96.70
4509;DHT22;2267;48.816;9.230;2022-07-30T04:36:31;20.80;96.80
4509;DHT22;2267;48.816;9.230;2022-07-30T04:38:59;20.80;96.60
4509;DHT22;2267;48.816;9.230;2022-07-30T04:41:26;20.70;96.70
4509;DHT22;2267;48.816;9.230;2022-07-30T04:43:53;20.70;96.40
4509;DHT22;2267;48.816;9.230;2022-07-30T04:46:19;20.70;96.40
4509;DHT22;2267;48.816;9.230;2022-07-30T04:48:50;20.80;96.40
4509;DHT22;2267;48.816;9.230;2022-07-30T04:51:25;20.80;96.40
4509;DHT22;2267;48.816;9.230;2022-07-30T04:53:55;20.70;96.70
4509;DHT22;2267;48.816;9.230;2022-07-30T04:56:23;20.80;96.40
4509;DHT22;2267;48.816;9.230;2022-07-30T04:58:51;20.80;96.10
4509;DHT22;2267;48.816;9.230;2022-07-30T05:01:22;20.80;96.30
4509;DHT22;2267;48.816;9.230;2022-07-30T05:04:07;20.90;96.00
4509;DHT22;2267;48.816;9.230;2022-07-30T05:06:37;20.90;96.10
4509;DHT22;2267;48.816;9.230;2022-07-30T05:09:05;21.00;96.30
4509;DHT22;2267;48.816;9.230;2022-07-30T05:11:32;21.00;96.40
4509;DHT22;2267;48.816;9.230;2022-07-30T05:13:58;21.00;96.30
4509;DHT22;2267;48.816;9.230;2022-07-30T05:16:25;21.00;96.40
4509;DHT22;2267;48.816;9.230;2022-07-30T05:18:53;21.00;96.20
4509;DHT22;2267;48.816;9.230;2022-07-30T05:21:20;21.10;96.30
4509;DHT22;2267;48.816;9.230;2022-07-30T05:23:46;21.10;96.40
4509;DHT22;2267;48.816;9.230;2022-07-30T05:26:20;21.20;96.40
4509;DHT22;2267;48.816;9.230;2022-07-30T05:28:47;21.20;96.20
4509;DHT22;2267;48.816;9.230;2022-07-30T05:31:20;21.30;96.00
4509;DHT22;2267;48.816;9.230;2022-07-30T05:33:47;21.30;96.00
4509;DHT22;2267;48.816;9.230;2022-07-30T05:36:14;21.30;96.00
4509;DHT22;2267;48.816;9.230;2022-07-30T05:38:41;21.40;95.80
4509;DHT22;2267;48.816;9.230;2022-07-30T05:41:08;21.40;95.70
4509;DHT22;2267;48.816;9.230;2022-07-30T05:43:55;21.50;95.20
4509;DHT22;2267;48.816;9.230;2022-07-30T05:46:22;21.50;95.10
4509;DHT22;2267;48.816;9.230;2022-07-30T05:48:49;21.60;94.70
4509;DHT22;2267;48.816;9.230;2022-07-30T05:51:16;21.70;94.30
4509;DHT22;2267;48.816;9.230;2022-07-30T05:53:45;21.70;94.80
4509;DHT22;2267;48.816;9.230;2022-07-30T05:56:12;21.80;94.70
4509;DHT22;2267;48.816;9.230;2022-07-30T05:58:39;21.90;94.30
4509;DHT22;2267;48.816;9.230;2022-07-30T06:01:05;21.90;94.10
4509;DHT22;2267;48.816;9.230;2022-07-30T06:03:32;22.00;94.30
4509;DHT22;2267;48.816;9.230;2022-07-30T06:06:02;22.10;93.80
4509;DHT22;2267;48.816;9.230;2022-07-30T06:08:30;22.10;93.20
4509;DHT22;2267;48.816;9.230;2022-07-30T06:10:57;22.20;92.70
4509;DHT22;2267;48.816;9.230;2022-07-30T06:13:25;22.20;92.90
4509;DHT22;2267;48.816;9.230;2022-07-30T06:15:52;22.30;91.90
4509;DHT22;2267;48.816;9.230;2022-07-30T06:18:18;22.30;92.00
4509;DHT22;2267;48.816;9.230;2022-07-30T06:20:50;22.40;91.60
4509;DHT22;2267;48.816;9.230;2022-07-30T06:23:18;22.40;90.90
4509;DHT22;2267;48.816;9.230;2022-07-30T06:25:45;22.50;90.90
4509;DHT22;2267;48.816;9.230;2022-07-30T06:28:13;22.50;90.50
4509;DHT22;2267;48.816;9.230;2022-07-30T06:31:00;22.60;90.50
4509;DHT22;2267;48.816;9.230;2022-07-30T06:33:28;22.60;90.00
4509;DHT22;2267;48.816;9.230;2022-07-30T06:35:54;22.70;90.10
4509;DHT22;2267;48.816;9.230;2022-07-30T06:38:21;22.80;88.70
4509;DHT22;2267;48.816;9.230;2022-07-30T06:40:48;22.80;88.20
4509;DHT22;2267;48.816;9.230;2022-07-30T06:43:15;22.80;87.10
4509;DHT22;2267;48.816;9.230;2022-07-30T06:45:42;22.90;86.60
4509;DHT22;2267;48.816;9.230;2022-07-30T06:48:09;22.90;86.30
4509;DHT22;2267;48.816;9.230;2022-07-30T06:50:36;23.00;85.00
4509;DHT22;2267;48.816;9.230;2022-07-30T06:53:03;23.00;85.10
4509;DHT22;2267;48.816;9.230;2022-07-30T06:55:29;23.00;85.90
4509;DHT22;2267;48.816;9.230;2022-07-30T06:57:56;23.00;84.70
4509;DHT22;2267;48.816;9.230;2022-07-30T07:00:23;23.10;84.80
4509;DHT22;2267;48.816;9.230;2022-07-30T07:02:50;23.10;85.00
4509;DHT22;2267;48.816;9.230;2022-07-30T07:05:17;23.20;84.50
4509;DHT22;2267;48.816;9.230;2022-07-30T07:07:44;23.20;84.50
4509;DHT22;2267;48.816;9.230;2022-07-30T07:10:24;23.30;84.70
4509;DHT22;2267;48.816;9.230;2022-07-30T07:12:51;23.30;82.90
4509;DHT22;2267;48.816;9.230;2022-07-30T07:15:18;23.40;82.90
4509;DHT22;2267;48.816;9.230;2022-07-30T07:17:47;23.40;82.40
4509;DHT22;2267;48.816;9.230;2022-07-30T07:20:14;23.40;83.10
4509;DHT22;2267;48.816;9.230;2022-07-30T07:22:41;23.40;83.30
4509;DHT22;2267;48.816;9.230;2022-07-30T07:25:10;23.40;82.20
4509;DHT22;2267;48.816;9.230;2022-07-30T07:27:37;23.50;81.80
4509;DHT22;2267;48.816;9.230;2022-07-30T07:30:04;23.50;82.10
4509;DHT22;2267;48.816;9.230;2022-07-30T07:32:34;23.50;81.70
4509;DHT22;2267;48.816;9.230;2022-07-30T07:35:01;23.60;82.40
4509;DHT22;2267;48.816;9.230;2022-07-30T07:37:28;23.60;82.30
4509;DHT22;2267;48.816;9.230;2022-07-30T07:39:55;23.70;80.50
4509;DHT22;2267;48.816;9.230;2022-07-30T07:42:21;23.70;80.30
4509;DHT22;2267;48.816;9.230;2022-07-30T07:44:49;23.80;81.10
4509;DHT22;2267;48.816;9.230;2022-07-30T07:47:16;23.80;81.70
4509;DHT22;2267;48.816;9.230;2022-07-30T07:49:42;23.90;87.20
4509;DHT22;2267;48.816;9.230;2022-07-30T07:52:09;23.90;82.80
4509;DHT22;2267;48.816;9.230;2022-07-30T07:54:36;23.90;82.30
4509;DHT22;2267;48.816;9.230;2022-07-30T07:57:04;23.90;82.50
4509;DHT22;2267;48.816;9.230;2022-07-30T07:59:36;24.00;85.60
4509;DHT22;2267;48.816;9.230;2022-07-30T08:02:07;24.00;81.90
4509;DHT22;2267;48.816;9.230;2022-07-30T08:04:34;24.00;85.90
4509;DHT22;2267;48.816;9.230;2022-07-30T08:07:01;24.20;84.70
4509;DHT22;2267;48.816;9.230;2022-07-30T08:09:29;24.20;84.20
4509;DHT22;2267;48.816;9.230;2022-07-30T08:12:13;24.30;83.00
4509;DHT22;2267;48.816;9.230;2022-07-30T08:14:39;24.30;80.10
4509;DHT22;2267;48.816;9.230;2022-07-30T08:17:06;24.40;80.20
4509;DHT22;2267;48.816;9.230;2022-07-30T08:19:34;24.40;80.80
4509;DHT22;2267;48.816;9.230;2022-07-30T08:22:01;24.40;79.60
4509;DHT22;2267;48.816;9.230;2022-07-30T08:24:28;24.40;79.50
4509;DHT22;2267;48.816;9.230;2022-07-30T08:26:55;24.50;80.10
4509;DHT22;2267;48.816;9.230;2022-07-30T08:29:21;24.50;79.00
4509;DHT22;2267;48.816;9.230;2022-07-30T08:31:48;24.50;77.40
4509;DHT22;2267;48.816;9.230;2022-07-30T08:34:15;24.60;78.50
4509;DHT22;2267;48.816;9.230;2022-07-30T08:36:42;24.70;79.10
4509;DHT22;2267;48.816;9.230;2022-07-30T08:39:09;24.70;76.40
4509;DHT22;2267;48.816;9.230;2022-07-30T08:41:36;24.70;76.90
4509;DHT22;2267;48.816;9.230;2022-07-30T08:44:03;24.80;77.50
4509;DHT22;2267;48.816;9.230;2022-07-30T08:46:42;24.80;77.50
4509;DHT22;2267;48.816;9.230;2022-07-30T08:49:13;24.90;76.60
4509;DHT22;2267;48.816;9.230;2022-07-30T08:51:41;24.90;75.30
4509;DHT22;2267;48.816;9.230;2022-07-30T08:54:08;24.80;74.20
4509;DHT22;2267;48.816;9.230;2022-07-30T08:56:35;24.80;74.90
4509;DHT22;2267;48.816;9.230;2022-07-30T08:59:02;24.90;76.80
4509;DHT22;2267;48.816;9.230;2022-07-30T09:01:29;24.90;75.90
4509;DHT22;2267;48.816;9.230;2022-07-30T09:03:56;25.00;75.30
4509;DHT22;2267;48.816;9.230;2022-07-30T09:06:23;25.00;74.20
4509;DHT22;2267;48.816;9.230;2022-07-30T09:08:50;25.00;73.30
4509;DHT22;2267;48.816;9.230;2022-07-30T09:11:17;25.10;71.90
4509;DHT22;2267;48.816;9.230;2022-07-30T09:13:43;25.00;68.50
4509;DHT22;2267;48.816;9.230;2022-07-30T09:16:24;25.10;69.10
4509;DHT22;2267;48.816;9.230;2022-07-30T09:18:53;25.10;70.90
4509;DHT22;2267;48.816;9.230;2022-07-30T09:21:25;25.20;70.50
4509;DHT22;2267;48.816;9.230;2022-07-30T09:26:30;25.30;68.90
4509;DHT22;2267;48.816;9.230;2022-07-30T09:29:15;25.30;69.20
4509;DHT22;2267;48.816;9.230;2022-07-30T09:31:59;25.20;70.00
4509;DHT22;2267;48.816;9.230;2022-07-30T09:34:34;25.20;69.90
4509;DHT22;2267;48.816;9.230;2022-07-30T09:39:39;25.30;68.20
4509;DHT22;2267;48.816;9.230;2022-07-30T09:42:19;25.40;67.50
4509;DHT22;2267;48.816;9.230;2022-07-30T09:44:47;25.50;68.60
4509;DHT22;2267;48.816;9.230;2022-07-30T09:47:36;25.60;67.70
4509;DHT22;2267;48.816;9.230;2022-07-30T09:50:06;25.60;66.10
4509;DHT22;2267;48.816;9.230;2022-07-30T09:52:34;25.60;64.60
4509;DHT22;2267;48.816;9.230;2022-07-30T09:55:01;25.50;63.60
4509;DHT22;2267;48.816;9.230;2022-07-30T09:57:29;25.50;63.60
4509;DHT22;2267;48.816;9.230;2022-07-30T10:00:15;25.60;63.10
4509;DHT22;2267;48.816;9.230;2022-07-30T10:02:44;25.60;62.90
4509;DHT22;2267;48.816;9.230;2022-07-30T10:05:14;25.70;62.70
4509;DHT22;2267;48.816;9.230;2022-07-30T10:08:01;25.60;62.20
4509;DHT22;2267;48.816;9.230;2022-07-30T10:10:42;25.60;62.30
4509;DHT22;2267;48.816;9.230;2022-07-30T10:13:17;25.70;63.10
4509;DHT22;2267;48.816;9.230;2022-07-30T10:15:48;25.80;62.40
4509;DHT22;2267;48.816;9.230;2022-07-30T10:18:16;25.60;61.90
4509;DHT22;2267;48.816;9.230;2022-07-30T10:20:44;25.60;62.40
4509;DHT22;2267;48.816;9.230;2022-07-30T10:23:11;25.70;62.70
4509;DHT22;2267;48.816;9.230;2022-07-30T10:25:42;25.80;62.70
4509;DHT22;2267;48.816;9.230;2022-07-30T10:28:22;25.80;62.90
4509;DHT22;2267;48.816;9.230;2022-07-30T10:30:51;26.00;62.90
4509;DHT22;2267;48.816;9.230;2022-07-30T10:33:21;26.00;61.40
4509;DHT22;2267;48.816;9.230;2022-07-30T10:36:06;26.10;61.80
4509;DHT22;2267;48.816;9.230;2022-07-30T10:38:38;26.10;60.80
4509;DHT22;2267;48.816;9.230;2022-07-30T10:47:05;26.30;60.40
4509;DHT22;2267;48.816;9.230;2022-07-30T10:49:36;26.40;60.40
4509;DHT22;2267;48.816;9.230;2022-07-30T10:52:09;26.40;59.70
4509;DHT22;2267;48.816;9.230;2022-07-30T10:54:40;26.50;59.10
4509;DHT22;2267;48.816;9.230;2022-07-30T10:57:18;26.60;59.60
4509;DHT22;2267;48.816;9.230;2022-07-30T11:02:29;26.70;59.10
4509;DHT22;2267;48.816;9.230;2022-07-30T11:07:45;27.00;59.70
4509;DHT22;2267;48.816;9.230;2022-07-30T11:10:48;27.00;58.60
4509;DHT22;2267;48.816;9.230;2022-07-30T11:13:15;26.90;58.50
4509;DHT22;2267;48.816;9.230;2022-07-30T11:15:55;26.80;58.70
4509;DHT22;2267;48.816;9.230;2022-07-30T11:18:25;26.90;58.90
4509;DHT22;2267;48.816;9.230;2022-07-30T11:21:16;27.10;58.60
4509;DHT22;2267;48.816;9.230;2022-07-30T11:23:47;27.30;58.00
4509;DHT22;2267;48.816;9.230;2022-07-30T11:29:07;27.60;58.40
4509;DHT22;2267;48.816;9.230;2022-07-30T11:32:28;27.50;57.00
4509;DHT22;2267;48.816;9.230;2022-07-30T11:35:12;27.70;56.70
4509;DHT22;2267;48.816;9.230;2022-07-30T11:38:05;27.90;55.80
4509;DHT22;2267;48.816;9.230;2022-07-30T11:48:32;28.50;54.10
4509;DHT22;2267;48.816;9.230;2022-07-30T11:50:59;28.70;53.60
4509;DHT22;2267;48.816;9.230;2022-07-30T11:53:29;28.80;53.20
4509;DHT22;2267;48.816;9.230;2022-07-30T11:55:59;28.90;53.20
4509;DHT22;2267;48.816;9.230;2022-07-30T11:58:36;28.80;52.80
4509;DHT22;2267;48.816;9.230;2022-07-30T12:01:11;28.80;53.50
4509;DHT22;2267;48.816;9.230;2022-07-30T12:03:40;28.70;52.00
4509;DHT22;2267;48.816;9.230;2022-07-30T12:06:09;28.60;52.30
4509;DHT22;2267;48.816;9.230;2022-07-30T12:08:44;28.70;53.10
4509;DHT22;2267;48.816;9.230;2022-07-30T12:11:11;29.00;53.30
4509;DHT22;2267;48.816;9.230;2022-07-30T12:13:39;29.20;52.70
4509;DHT22;2267;48.816;9.230;2022-07-30T12:16:13;29.30;51.00
4509;DHT22;2267;48.816;9.230;2022-07-30T12:18:42;29.10;50.50
4509;DHT22;2267;48.816;9.230;2022-07-30T12:21:10;29.10;51.30
4509;DHT22;2267;48.816;9.230;2022-07-30T12:23:38;29.20;51.30
4509;DHT22;2267;48.816;9.230;2022-07-30T12:26:07;29.40;51.70
4509;DHT22;2267;48.816;9.230;2022-07-30T12:28:35;29.50;52.20
4509;DHT22;2267;48.816;9.230;2022-07-30T12:31:02;29.60;51.20
4509;DHT22;2267;48.816;9.230;2022-07-30T12:33:31;29.80;51.70
4509;DHT22;2267;48.816;9.230;2022-07-30T12:35:59;29.90;50.50
4509;DHT22;2267;48.816;9.230;2022-07-30T12:38:27;29.90;50.60
4509;DHT22;2267;48.816;9.230;2022-07-30T12:46:09;30.30;49.00
4509;DHT22;2267;48.816;9.230;2022-07-30T12:48:50;30.20;48.70
4509;DHT22;2267;48.816;9.230;2022-07-30T12:51:18;30.10;48.60
4509;DHT22;2267;48.816;9.230;2022-07-30T12:53:46;30.10;50.00
4509;DHT22;2267;48.816;9.230;2022-07-30T12:56:15;30.10;48.80
4509;DHT22;2267;48.816;9.230;2022-07-30T12:58:43;29.90;48.70
4509;DHT22;2267;48.816;9.230;2022-07-30T13:01:12;29.90;49.30
4509;DHT22;2267;48.816;9.230;2022-07-30T13:03:39;30.10;49.40
4509;DHT22;2267;48.816;9.230;2022-07-30T13:06:20;30.40;49.30
4509;DHT22;2267;48.816;9.230;2022-07-30T13:08:54;30.70;48.40
4509;DHT22;2267;48.816;9.230;2022-07-30T13:11:26;30.90;47.60
4509;DHT22;2267;48.816;9.230;2022-07-30T13:13:53;30.90;47.90
4509;DHT22;2267;48.816;9.230;2022-07-30T13:16:21;31.00;47.60
4509;DHT22;2267;48.816;9.230;2022-07-30T13:18:47;31.00;47.40
4509;DHT22;2267;48.816;9.230;2022-07-30T13:21:14;31.10;47.30
4509;DHT22;2267;48.816;9.230;2022-07-30T13:23:41;31.30;46.90
4509;DHT22;2267;48.816;9.230;2022-07-30T13:26:09;31.40;46.60
4509;DHT22;2267;48.816;9.230;2022-07-30T13:28:36;31.50;46.70
4509;DHT22;2267;48.816;9.230;2022-07-30T13:31:03;31.40;46.70
4509;DHT22;2267;48.816;9.230;2022-07-30T13:33:30;31.50;46.90
4509;DHT22;2267;48.816;9.230;2022-07-30T13:35:57;31.60;47.30
4509;DHT22;2267;48.816;9.230;2022-07-30T13:38:24;31.70;47.00
4509;DHT22;2267;48.816;9.230;2022-07-30T13:40:51;31.80;47.00
4509;DHT22;2267;48.816;9.230;2022-07-30T13:43:19;31.80;46.30
4509;DHT22;2267;48.816;9.230;2022-07-30T13:45:46;31.90;46.50
4509;DHT22;2267;48.816;9.230;2022-07-30T13:48:13;32.00;46.30
4509;DHT22;2267;48.816;9.230;2022-07-30T13:50:41;32.20;46.80
4509;DHT22;2267;48.816;9.230;2022-07-30T13:53:08;32.30;46.50
4509;DHT22;2267;48.816;9.230;2022-07-30T13:55:36;32.50;45.50
4509;DHT22;2267;48.816;9.230;2022-07-30T13:58:04;32.40;44.80
4509;DHT22;2267;48.816;9.230;2022-07-30T14:00:32;32.40;45.10
4509;DHT22;2267;48.816;9.230;2022-07-30T14:03:04;32.50;44.50
4509;DHT22;2267;48.816;9.230;2022-07-30T14:05:33;32.60;45.00
4509;DHT22;2267;48.816;9.230;2022-07-30T14:08:08;32.60;44.80
4509;DHT22;2267;48.816;9.230;2022-07-30T14:10:36;32.70;45.10
4509;DHT22;2267;48.816;9.230;2022-07-30T14:13:04;32.90;45.50
4509;DHT22;2267;48.816;9.230;2022-07-30T14:15:32;32.90;45.40
4509;DHT22;2267;48.816;9.230;2022-07-30T14:18:00;33.00;45.10
4509;DHT22;2267;48.816;9.230;2022-07-30T14:20:27;33.10;44.70
4509;DHT22;2267;48.816;9.230;2022-07-30T14:22:55;33.10;44.60
4509;DHT22;2267;48.816;9.230;2022-07-30T14:25:22;33.20;44.30
4509;DHT22;2267;48.816;9.230;2022-07-30T14:27:49;33.20;43.50
4509;DHT22;2267;48.816;9.230;2022-07-30T14:30:16;33.20;43.90
4509;DHT22;2267;48.816;9.230;2022-07-30T14:32:43;33.30;44.10
4509;DHT22;2267;48.816;9.230;2022-07-30T14:35:10;33.40;44.20
4509;DHT22;2267;48.816;9.230;2022-07-30T14:37:38;33.60;43.90
4509;DHT22;2267;48.816;9.230;2022-07-30T14:40:07;33.60;43.30
4509;DHT22;2267;48.816;9.230;2022-07-30T14:42:35;33.20;43.10
4509;DHT22;2267;48.816;9.230;2022-07-30T14:45:03;32.90;43.60
4509;DHT22;2267;48.816;9.230;2022-07-30T14:47:30;32.70;43.80
4509;DHT22;2267;48.816;9.230;2022-07-30T14:49:57;32.70;44.20
4509;DHT22;2267;48.816;9.230;2022-07-30T14:52:26;32.80;44.10
4509;DHT22;2267;48.816;9.230;2022-07-30T14:54:53;32.80;43.90
4509;DHT22;2267;48.816;9.230;2022-07-30T14:57:19;32.90;44.00
4509;DHT22;2267;48.816;9.230;2022-07-30T14:59:46;32.90;44.00
4509;DHT22;2267;48.816;9.230;2022-07-30T15:02:13;32.70;44.40
4509;DHT22;2267;48.816;9.230;2022-07-30T15:04:41;32.70;44.20
4509;DHT22;2267;48.816;9.230;2022-07-30T15:07:07;32.80;44.60
4509;DHT22;2267;48.816;9.230;2022-07-30T15:09:34;32.70;44.40
4509;DHT22;2267;48.816;9.230;2022-07-30T15:12:01;32.70;44.40
4509;DHT22;2267;48.816;9.230;2022-07-30T15:14:38;32.70;44.10
4509;DHT22;2267;48.816;9.230;2022-07-30T15:17:07;32.80;44.30
4509;DHT22;2267;48.816;9.230;2022-07-30T15:19:34;32.80;43.80
4509;DHT22;2267;48.816;9.230;2022-07-30T15:22:01;32.70;43.60
4509;DHT22;2267;48.816;9.230;2022-07-30T15:24:29;32.80;43.90
4509;DHT22;2267;48.816;9.230;2022-07-30T15:26:57;32.90;43.60
4509;DHT22;2267;48.816;9.230;2022-07-30T15:29:24;32.90;43.10
4509;DHT22;2267;48.816;9.230;2022-07-30T15:31:53;32.90;43.30
4509;DHT22;2267;48.816;9.230;2022-07-30T15:34:20;32.90;43.30
4509;DHT22;2267;48.816;9.230;2022-07-30T15:36:47;32.90;43.20
4509;DHT22;2267;48.816;9.230;2022-07-30T15:39:14;32.80;43.10
4509;DHT22;2267;48.816;9.230;2022-07-30T15:41:41;32.70;43.20
4509;DHT22;2267;48.816;9.230;2022-07-30T15:44:08;32.70;43.20
4509;DHT22;2267;48.816;9.230;2022-07-30T15:46:35;32.70;43.10
4509;DHT22;2267;48.816;9.230;2022-07-30T15:49:02;32.70;43.00
4509;DHT22;2267;48.816;9.230;2022-07-30T15:51:30;32.70;43.50
4509;DHT22;2267;48.816;9.230;2022-07-30T15:53:58;32.60;43.70
4509;DHT22;2267;48.816;9.230;2022-07-30T15:56:25;32.50;43.90
4509;DHT22;2267;48.816;9.230;2022-07-30T15:58:53;32.50;44.40
4509;DHT22;2267;48.816;9.230;2022-07-30T16:01:20;32.30;44.10
4509;DHT22;2267;48.816;9.230;2022-07-30T16:03:47;32.00;44.80
4509;DHT22;2267;48.816;9.230;2022-07-30T16:06:14;31.90;44.60
4509;DHT22;2267;48.816;9.230;2022-07-30T16:08:41;31.70;44.80
4509;DHT22;2267;48.816;9.230;2022-07-30T16:11:08;31.50;45.30
4509;DHT22;2267;48.816;9.230;2022-07-30T16:13:36;31.30;45.30
4509;DHT22;2267;48.816;9.230;2022-07-30T16:16:03;31.20;45.30
4509;DHT22;2267;48.816;9.230;2022-07-30T16:18:30;31.20;46.20
4509;DHT22;2267;48.816;9.230;2022-07-30T16:20:57;31.10;45.90
4509;DHT22;2267;48.816;9.230;2022-07-30T16:23:27;31.00;46.10
4509;DHT22;2267;48.816;9.230;2022-07-30T16:26:02;30.90;46.30
4509;DHT22;2267;48.816;9.230;2022-07-30T16:28:29;30.90;46.10
4509;DHT22;2267;48.816;9.230;2022-07-30T16:30:56;30.80;46.10
4509;DHT22;2267;48.816;9.230;2022-07-30T16:33:23;30.80;46.50
4509;DHT22;2267;48.816;9.230;2022-07-30T16:35:50;30.80;46.10
4509;DHT22;2267;48.816;9.230;2022-07-30T16:38:18;30.90;46.50
4509;DHT22;2267;48.816;9.230;2022-07-30T16:40:45;30.90;46.70
4509;DHT22;2267;48.816;9.230;2022-07-30T16:43:12;31.10;46.50
4509;DHT22;2267;48.816;9.230;2022-07-30T16:45:42;31.10;46.50
4509;DHT22;2267;48.816;9.230;2022-07-30T16:48:09;31.00;46.40
4509;DHT22;2267;48.816;9.230;2022-07-30T16:50:37;31.00;46.70
4509;DHT22;2267;48.816;9.230;2022-07-30T16:53:07;31.00;46.60
4509;DHT22;2267;48.816;9.230;2022-07-30T16:55:40;30.90;46.90
4509;DHT22;2267;48.816;9.230;2022-07-30T16:58:07;30.80;47.10